createdAt,value
2019-01-16T00:02:09.732Z,0.90
2019-01-16T00:04:40.177Z,1.00
2019-01-16T00:07:10.070Z,0.70
2019-01-16T00:09:39.980Z,0.93
2019-01-16T00:12:15.832Z,0.90
2019-01-16T00:14:48.415Z,1.07
2019-01-16T00:17:34.542Z,1.00
2019-01-16T00:20:07.446Z,0.93
2019-01-16T00:22:40.056Z,1.00
2019-01-16T00:25:25.193Z,1.00
2019-01-16T00:27:58.524Z,0.90
2019-01-16T00:30:28.406Z,1.13
2019-01-16T00:32:58.275Z,0.90
2019-01-16T00:35:46.397Z,0.87
2019-01-16T00:38:34.510Z,0.80
2019-01-16T00:41:13.385Z,0.80
2019-01-16T00:43:49.117Z,1.00
2019-01-16T00:46:28.172Z,0.87
2019-01-16T00:49:14.451Z,0.70
2019-01-16T00:52:00.280Z,0.73
2019-01-16T00:54:33.127Z,0.90
2019-01-16T00:57:06.081Z,0.90
2019-01-16T00:59:38.612Z,1.03
2019-01-16T01:02:20.789Z,0.80
2019-01-16T01:04:50.682Z,0.70
2019-01-16T01:07:29.289Z,0.70
2019-01-16T01:09:59.165Z,1.30
2019-01-16T01:12:29.053Z,0.73
2019-01-16T01:15:01.633Z,0.83
2019-01-16T01:17:34.206Z,0.70
2019-01-16T01:20:07.065Z,0.80
2019-01-16T01:22:42.839Z,1.00
2019-01-16T01:25:12.705Z,0.90
2019-01-16T01:27:42.596Z,0.80
2019-01-16T01:30:29.677Z,0.80
2019-01-16T01:33:02.627Z,0.83
2019-01-16T01:35:38.385Z,1.00
2019-01-16T01:38:23.858Z,0.70
2019-01-16T01:41:05.894Z,0.50
2019-01-16T01:43:41.589Z,0.77
2019-01-16T01:46:17.200Z,0.77
2019-01-16T01:48:53.157Z,0.90
2019-01-16T01:51:38.279Z,0.90
2019-01-16T01:54:08.162Z,0.80
2019-01-16T01:56:38.035Z,0.80
2019-01-16T01:59:07.914Z,0.93
2019-01-16T02:01:40.586Z,0.90
2019-01-16T02:04:13.119Z,0.70
2019-01-16T02:06:51.842Z,0.70
2019-01-16T02:09:30.926Z,1.00
2019-01-16T02:12:19.129Z,0.77
2019-01-16T02:14:49.029Z,0.90
2019-01-16T02:17:28.205Z,0.90
2019-01-16T02:19:58.111Z,0.70
2019-01-16T02:22:33.944Z,0.60
2019-01-16T02:25:03.848Z,0.80
2019-01-16T02:27:36.669Z,1.10
2019-01-16T02:30:12.674Z,0.70
2019-01-16T02:32:42.547Z,0.60
2019-01-16T02:35:24.402Z,0.77
2019-01-16T02:37:56.965Z,0.80
2019-01-16T02:40:33.027Z,0.40
2019-01-16T02:43:11.894Z,0.70
2019-01-16T02:45:44.770Z,0.60
2019-01-16T02:48:14.644Z,0.73
2019-01-16T02:50:44.530Z,0.80
2019-01-16T02:53:14.417Z,0.90
2019-01-16T02:55:44.317Z,0.70
2019-01-16T02:58:16.923Z,0.70
2019-01-16T03:00:46.809Z,0.67
2019-01-16T03:03:19.630Z,0.80
2019-01-16T03:05:55.228Z,0.70
2019-01-16T03:08:37.102Z,0.60
2019-01-16T03:11:23.200Z,0.60
2019-01-16T03:13:59.113Z,0.70
2019-01-16T03:16:34.771Z,0.93
2019-01-16T03:19:10.410Z,0.70
2019-01-16T03:21:52.723Z,0.60
2019-01-16T03:24:39.753Z,0.57
2019-01-16T03:27:13.025Z,1.10
2019-01-16T03:29:45.582Z,0.80
2019-01-16T03:32:15.467Z,0.70
2019-01-16T03:34:45.339Z,0.60
2019-01-16T03:37:21.277Z,0.87
2019-01-16T03:39:51.146Z,0.60
2019-01-16T03:42:32.956Z,0.70
2019-01-16T03:45:08.710Z,0.73
2019-01-16T03:47:38.585Z,0.53
2019-01-16T03:50:10.302Z,0.60
2019-01-16T03:52:40.186Z,0.83
2019-01-16T03:55:22.421Z,0.70
2019-01-16T03:57:52.293Z,0.60
2019-01-16T04:00:37.521Z,0.67
2019-01-16T04:03:07.403Z,0.63
2019-01-16T04:05:40.082Z,0.50
2019-01-16T04:08:09.974Z,0.77
2019-01-16T04:10:39.852Z,0.80
2019-01-16T04:13:28.142Z,0.60
2019-01-16T04:15:58.035Z,0.83
2019-01-16T04:18:30.352Z,1.00
2019-01-16T04:21:15.245Z,0.67
2019-01-16T04:23:48.105Z,0.70
2019-01-16T04:26:17.978Z,1.00
2019-01-16T04:28:54.029Z,0.70
2019-01-16T04:31:24.185Z,0.90
2019-01-16T04:33:56.720Z,1.03
2019-01-16T04:36:35.328Z,0.80
2019-01-16T04:39:25.239Z,0.70
2019-01-16T04:41:55.106Z,0.60
2019-01-16T04:44:31.118Z,0.80
2019-01-16T04:47:09.938Z,0.50
2019-01-16T04:49:52.157Z,0.70
2019-01-16T04:52:27.812Z,0.43
2019-01-16T04:55:00.937Z,1.20
2019-01-16T04:57:33.794Z,0.70
2019-01-16T05:00:06.401Z,0.50
2019-01-16T05:02:52.689Z,0.70
2019-01-16T05:05:39.094Z,0.87
2019-01-16T05:08:18.015Z,0.60
2019-01-16T05:11:00.188Z,0.70
2019-01-16T05:13:30.074Z,0.90
2019-01-16T05:16:15.241Z,0.80
2019-01-16T05:19:01.626Z,1.53
2019-01-16T05:21:37.175Z,2.40
2019-01-16T05:24:09.750Z,2.00
2019-01-16T05:26:45.683Z,2.77
2019-01-16T05:29:15.561Z,2.73
2019-01-16T05:31:48.590Z,2.60
2019-01-16T05:34:24.420Z,3.00
2019-01-16T05:37:10.809Z,2.97
2019-01-16T05:39:49.750Z,2.97
2019-01-16T05:42:20.323Z,3.20
2019-01-16T05:44:50.205Z,2.93
2019-01-16T05:47:29.085Z,3.20
2019-01-16T05:50:14.266Z,2.83
2019-01-16T05:53:00.685Z,3.10
2019-01-16T05:55:33.683Z,3.23
2019-01-16T05:58:15.595Z,3.17
2019-01-16T06:00:54.533Z,3.20
2019-01-16T06:03:27.409Z,3.60
2019-01-16T06:06:15.439Z,2.80
2019-01-16T06:08:54.546Z,2.93
2019-01-16T06:11:28.006Z,3.50
2019-01-16T06:14:01.609Z,2.70
2019-01-16T06:16:34.693Z,2.00
2019-01-16T06:19:16.834Z,2.10
2019-01-16T06:21:49.689Z,2.40
2019-01-16T06:24:35.994Z,1.90
2019-01-16T06:27:22.398Z,1.80
2019-01-16T06:30:02.034Z,1.83
2019-01-16T06:32:49.258Z,1.90
2019-01-16T06:35:22.157Z,1.60
2019-01-16T06:38:06.789Z,2.00
2019-01-16T06:40:36.669Z,3.20
2019-01-16T06:43:06.585Z,3.30
2019-01-16T06:45:52.976Z,3.03
2019-01-16T06:48:34.941Z,2.00
2019-01-16T06:51:10.804Z,2.20
2019-01-16T06:53:56.557Z,2.10
2019-01-16T06:56:29.525Z,2.43
2019-01-16T06:58:59.424Z,1.70
2019-01-16T07:01:35.059Z,1.83
2019-01-16T07:04:07.937Z,1.83
2019-01-16T07:06:54.050Z,1.63
2019-01-16T07:09:40.378Z,1.80
2019-01-16T07:12:22.537Z,1.83
2019-01-16T07:15:08.751Z,1.80
2019-01-16T07:17:55.461Z,1.80
2019-01-16T07:20:43.446Z,1.50
2019-01-16T07:23:13.329Z,1.20
2019-01-16T07:25:55.410Z,1.70
2019-01-16T07:28:40.352Z,1.60
2019-01-16T07:31:18.953Z,1.53
2019-01-16T07:33:49.406Z,1.27
2019-01-16T07:36:19.273Z,1.20
2019-01-16T07:38:58.157Z,1.33
2019-01-16T07:41:31.201Z,1.27
2019-01-16T07:44:02.105Z,1.67
2019-01-16T07:46:31.979Z,1.50
2019-01-16T07:49:16.934Z,1.10
2019-01-16T07:51:46.820Z,1.40
2019-01-16T07:54:16.704Z,1.30
2019-01-16T07:56:49.465Z,1.37
2019-01-16T07:59:39.990Z,1.30
2019-01-16T08:02:15.569Z,1.10
2019-01-16T08:04:46.021Z,1.43
2019-01-16T08:07:19.007Z,1.10
2019-01-16T08:10:05.450Z,1.00
2019-01-16T08:12:51.861Z,1.20
2019-01-16T08:15:24.687Z,1.10
2019-01-16T08:17:54.558Z,1.30
2019-01-16T08:20:40.901Z,0.93
2019-01-16T08:23:29.126Z,1.13
2019-01-16T08:26:02.050Z,1.30
2019-01-16T08:28:44.826Z,1.13
2019-01-16T08:31:31.094Z,1.20
2019-01-16T08:34:17.441Z,1.10
2019-01-16T08:36:53.281Z,1.03
2019-01-16T08:39:23.157Z,1.20
2019-01-16T08:41:53.042Z,1.10
2019-01-16T08:44:25.897Z,1.07
2019-01-16T08:47:01.778Z,1.50
2019-01-16T08:49:34.306Z,1.13
2019-01-16T08:52:20.610Z,0.90
2019-01-16T08:54:50.762Z,1.20
2019-01-16T08:57:37.197Z,1.20
2019-01-16T09:00:28.322Z,1.00
2019-01-16T09:03:04.169Z,0.90
2019-01-16T09:05:49.026Z,1.00
2019-01-16T09:08:27.902Z,0.73
2019-01-16T09:11:14.315Z,1.10
2019-01-16T09:14:00.694Z,0.70
2019-01-16T09:16:47.273Z,1.10
2019-01-16T09:19:20.086Z,1.10
2019-01-16T09:22:02.190Z,0.80
2019-01-16T09:24:41.093Z,0.93
2019-01-16T09:27:11.742Z,1.20
2019-01-16T09:29:48.141Z,0.83
2019-01-16T09:32:20.957Z,0.90
2019-01-16T09:34:50.842Z,0.90
2019-01-16T09:37:23.656Z,0.80
2019-01-16T09:40:02.774Z,0.87
2019-01-16T09:42:49.066Z,0.90
2019-01-16T09:45:21.918Z,0.73
2019-01-16T09:47:54.830Z,1.10
2019-01-16T09:50:27.670Z,0.87
2019-01-16T09:53:01.446Z,0.90
2019-01-16T09:55:46.397Z,0.60
2019-01-16T09:58:16.859Z,0.97
2019-01-16T10:01:03.164Z,0.90
2019-01-16T10:03:33.048Z,1.00
2019-01-16T10:06:05.686Z,0.93
2019-01-16T10:08:44.610Z,0.93
2019-01-16T10:11:17.475Z,0.77
2019-01-16T10:13:48.033Z,0.73
2019-01-16T10:16:17.902Z,0.70
2019-01-16T10:18:47.829Z,0.80
2019-01-16T10:21:35.985Z,0.80
2019-01-16T10:24:05.866Z,0.70
2019-01-16T10:26:38.619Z,0.70
2019-01-16T10:29:08.498Z,0.70
2019-01-16T10:31:38.378Z,0.90
2019-01-16T10:34:17.433Z,0.70
2019-01-16T10:36:59.125Z,0.70
2019-01-16T10:39:29.789Z,0.70
2019-01-16T10:42:02.385Z,0.70
2019-01-16T10:44:44.415Z,0.70
2019-01-16T10:47:14.285Z,0.80
2019-01-16T10:49:47.053Z,0.60
2019-01-16T10:52:16.926Z,0.60
2019-01-16T10:54:55.573Z,0.60
2019-01-16T10:57:26.918Z,0.70
2019-01-16T11:00:13.637Z,0.83
2019-01-16T11:02:46.511Z,0.80
2019-01-16T11:05:19.401Z,0.70
2019-01-16T11:07:55.137Z,0.63
2019-01-16T11:10:25.021Z,0.87
2019-01-16T11:13:01.830Z,0.90
2019-01-16T11:15:34.635Z,0.70
2019-01-16T11:18:10.465Z,0.63
2019-01-16T11:20:40.348Z,0.80
2019-01-16T11:23:10.214Z,0.80
2019-01-16T11:25:46.070Z,0.87
2019-01-16T11:28:15.942Z,0.70
2019-01-16T11:30:51.826Z,0.80
2019-01-16T11:33:37.713Z,0.80
2019-01-16T11:36:16.659Z,0.50
2019-01-16T11:38:46.530Z,0.80
2019-01-16T11:41:19.198Z,0.70
2019-01-16T11:44:04.416Z,0.80
2019-01-16T11:46:50.497Z,0.60
2019-01-16T11:49:32.741Z,0.70
2019-01-16T11:52:05.298Z,0.50
2019-01-16T11:54:35.861Z,0.60
2019-01-16T11:57:05.740Z,0.60
2019-01-16T11:59:53.761Z,0.70
2019-01-16T12:02:26.546Z,0.73
2019-01-16T12:05:15.418Z,0.50
2019-01-16T12:07:48.177Z,0.53
2019-01-16T12:10:20.898Z,0.70
2019-01-16T12:12:50.777Z,0.80
2019-01-16T12:15:23.365Z,0.70
2019-01-16T12:17:53.834Z,0.77
2019-01-16T12:20:29.589Z,0.70
2019-01-16T12:23:05.315Z,1.10
2019-01-16T12:25:35.219Z,1.17
2019-01-16T12:28:05.358Z,0.93
2019-01-16T12:30:35.235Z,0.90
2019-01-16T12:33:23.979Z,1.20
2019-01-16T12:36:06.157Z,0.87
2019-01-16T12:38:45.135Z,1.20
2019-01-16T12:41:17.719Z,1.00
2019-01-16T12:44:06.436Z,2.03
2019-01-16T12:46:39.174Z,1.10
2019-01-16T12:49:24.254Z,1.63
2019-01-16T12:51:54.804Z,1.57
2019-01-16T12:54:41.113Z,1.03
2019-01-16T12:57:20.038Z,1.77
2019-01-16T12:59:52.862Z,1.00
2019-01-16T13:02:38.950Z,1.23
2019-01-16T13:05:27.269Z,1.27
2019-01-16T13:07:59.801Z,0.90
2019-01-16T13:10:41.697Z,1.17
2019-01-16T13:13:29.681Z,1.13
2019-01-16T13:15:59.568Z,1.00
2019-01-16T13:18:45.867Z,1.00
2019-01-16T13:21:15.763Z,1.00
2019-01-16T13:24:01.927Z,0.93
2019-01-16T13:26:34.826Z,1.30
2019-01-16T13:29:21.278Z,0.80
2019-01-16T13:32:00.076Z,0.80
2019-01-16T13:34:35.751Z,0.67
2019-01-16T13:37:08.562Z,0.80
2019-01-16T13:39:41.402Z,1.10
2019-01-16T13:42:14.327Z,0.97
2019-01-16T13:44:50.435Z,1.23
2019-01-16T13:47:20.306Z,1.40
2019-01-16T13:49:59.374Z,1.00
2019-01-16T13:52:35.353Z,1.13
2019-01-16T13:55:08.963Z,1.30
2019-01-16T13:57:38.854Z,1.07
2019-01-16T14:00:14.565Z,1.10
2019-01-16T14:02:44.458Z,0.80
2019-01-16T14:05:17.514Z,1.20
2019-01-16T14:07:47.394Z,1.30
2019-01-16T14:10:20.033Z,1.00
2019-01-16T14:12:52.740Z,1.13
2019-01-16T14:15:39.117Z,1.20
2019-01-16T14:18:20.863Z,1.43
2019-01-16T14:20:50.737Z,1.00
2019-01-16T14:23:20.638Z,0.90
2019-01-16T14:26:05.823Z,1.00
2019-01-16T14:28:47.931Z,0.90
2019-01-16T14:31:17.802Z,1.03
2019-01-16T14:33:48.458Z,0.70
2019-01-16T14:36:18.630Z,0.90
2019-01-16T14:38:54.469Z,0.90
2019-01-16T14:41:36.622Z,0.97
2019-01-16T14:44:18.646Z,1.17
2019-01-16T14:46:57.397Z,1.03
2019-01-16T14:49:30.155Z,1.30
2019-01-16T14:52:02.868Z,1.33
2019-01-16T14:54:50.896Z,1.03
2019-01-16T14:57:23.205Z,1.10
2019-01-16T14:59:59.026Z,1.20
2019-01-16T15:02:34.645Z,1.40
2019-01-16T15:05:17.694Z,1.10
2019-01-16T15:07:50.749Z,0.90
2019-01-16T15:10:20.637Z,1.10
2019-01-16T15:12:50.509Z,1.00
2019-01-16T15:15:29.738Z,1.47
2019-01-16T15:17:59.616Z,0.83
2019-01-16T15:20:44.494Z,1.20
2019-01-16T15:23:16.929Z,0.80
2019-01-16T15:25:59.422Z,0.83
2019-01-16T15:28:41.357Z,1.10
2019-01-16T15:31:11.245Z,0.87
2019-01-16T15:33:44.085Z,1.20
2019-01-16T15:36:30.319Z,0.93
2019-01-16T15:39:06.413Z,0.77
2019-01-16T15:41:45.575Z,1.20
2019-01-16T15:44:27.469Z,1.30
2019-01-16T15:47:00.324Z,1.53
2019-01-16T15:49:35.953Z,1.03
2019-01-16T15:52:05.850Z,0.80
2019-01-16T15:54:44.793Z,1.30
2019-01-16T15:57:26.982Z,1.20
2019-01-16T16:00:13.401Z,0.97
2019-01-16T16:02:49.562Z,1.23
2019-01-16T16:05:36.178Z,1.00
2019-01-16T16:08:06.901Z,1.10
2019-01-16T16:10:36.783Z,1.20
2019-01-16T16:13:07.070Z,1.30
2019-01-16T16:15:36.978Z,0.90
2019-01-16T16:18:10.041Z,0.90
2019-01-16T16:20:42.871Z,0.90
2019-01-16T16:23:12.764Z,1.37
2019-01-16T16:25:51.430Z,0.80
2019-01-16T16:28:21.318Z,1.00
2019-01-16T16:30:54.310Z,0.67
2019-01-16T16:33:27.107Z,1.00
2019-01-16T16:36:13.175Z,0.90
2019-01-16T16:38:59.698Z,0.90
2019-01-16T16:41:32.250Z,0.90
2019-01-16T16:44:14.105Z,0.80
2019-01-16T16:46:46.828Z,0.93
2019-01-16T16:49:16.729Z,0.90
2019-01-16T16:51:52.621Z,0.80
2019-01-16T16:54:37.512Z,1.00
2019-01-16T16:57:23.477Z,1.00
2019-01-16T17:00:05.447Z,0.90
2019-01-16T17:02:41.278Z,0.80
2019-01-16T17:05:28.634Z,0.63
2019-01-16T17:08:01.458Z,0.70
2019-01-16T17:10:32.013Z,1.03
2019-01-16T17:13:08.049Z,0.70
2019-01-16T17:15:41.704Z,0.63
2019-01-16T17:18:11.606Z,0.67
2019-01-16T17:20:58.034Z,1.00
2019-01-16T17:23:37.138Z,0.70
2019-01-16T17:26:09.806Z,1.10
2019-01-16T17:28:54.602Z,0.83
2019-01-16T17:31:27.198Z,0.90
2019-01-16T17:33:57.638Z,0.60
2019-01-16T17:36:45.981Z,0.80
2019-01-16T17:39:18.553Z,0.80
2019-01-16T17:41:48.478Z,0.60
2019-01-16T17:44:35.048Z,0.93
2019-01-16T17:47:07.857Z,0.63
2019-01-16T17:49:40.519Z,0.70
2019-01-16T17:52:16.267Z,0.80
2019-01-16T17:55:02.659Z,0.87
2019-01-16T17:57:35.505Z,0.67
2019-01-16T18:00:08.781Z,0.70
2019-01-16T18:02:41.711Z,0.80
2019-01-16T18:05:14.541Z,0.67
2019-01-16T18:07:50.740Z,0.77
2019-01-16T18:10:30.461Z,0.53
2019-01-16T18:13:06.838Z,0.80
2019-01-16T18:15:42.666Z,0.93
2019-01-16T18:18:24.342Z,1.43
2019-01-16T18:20:59.931Z,0.93
2019-01-16T18:23:29.810Z,1.10
2019-01-16T18:26:08.533Z,0.87
2019-01-16T18:28:38.426Z,1.40
2019-01-16T18:31:11.617Z,0.90
2019-01-16T18:33:44.398Z,1.40
2019-01-16T18:36:29.622Z,1.00
2019-01-16T18:39:03.055Z,1.00
2019-01-16T18:41:32.926Z,1.00
2019-01-16T18:44:02.804Z,0.93
2019-01-16T18:46:35.881Z,0.87
2019-01-16T18:49:08.495Z,1.40
2019-01-16T18:51:47.077Z,0.83
2019-01-16T18:54:32.271Z,1.10
2019-01-16T18:57:17.500Z,0.90
2019-01-16T18:59:56.360Z,0.90
2019-01-16T19:02:42.686Z,0.90
2019-01-16T19:05:19.095Z,0.90
2019-01-16T19:07:49.241Z,1.10
2019-01-16T19:10:30.962Z,0.60
2019-01-16T19:13:15.893Z,1.20
2019-01-16T19:15:45.774Z,0.90
2019-01-16T19:18:15.660Z,1.00
2019-01-16T19:20:45.537Z,0.80
2019-01-16T19:23:21.686Z,0.77
2019-01-16T19:25:54.510Z,1.17
2019-01-16T19:28:27.365Z,0.90
2019-01-16T19:30:57.245Z,0.97
2019-01-16T19:33:35.973Z,0.80
2019-01-16T19:36:11.586Z,1.00
2019-01-16T19:38:41.441Z,0.90
2019-01-16T19:41:27.605Z,0.57
2019-01-16T19:43:57.477Z,0.80
2019-01-16T19:46:33.245Z,0.70
2019-01-16T19:49:05.969Z,1.00
2019-01-16T19:51:35.862Z,0.77
2019-01-16T19:54:22.057Z,0.90
2019-01-16T19:57:00.822Z,0.97
2019-01-16T19:59:39.509Z,0.63
2019-01-16T20:02:25.661Z,0.93
2019-01-16T20:05:13.866Z,1.00
2019-01-16T20:07:52.733Z,1.00
2019-01-16T20:10:25.489Z,0.67
2019-01-16T20:12:58.069Z,0.77
2019-01-16T20:15:45.997Z,0.70
2019-01-16T20:18:18.878Z,1.07
2019-01-16T20:20:57.830Z,1.00
2019-01-16T20:23:39.786Z,0.63
2019-01-16T20:26:27.791Z,1.02
2019-01-16T20:29:06.409Z,0.60
2019-01-16T20:31:48.318Z,0.97
2019-01-16T20:34:18.201Z,1.10
2019-01-16T20:36:50.773Z,0.80
2019-01-16T20:39:20.653Z,1.27
2019-01-16T20:42:07.008Z,0.87
2019-01-16T20:44:36.889Z,0.77
2019-01-16T20:47:13.342Z,1.13
2019-01-16T20:49:43.229Z,0.80
2019-01-16T20:52:16.373Z,0.70
2019-01-16T20:54:55.345Z,0.80
2019-01-16T20:57:28.161Z,0.60
2019-01-16T20:59:58.050Z,0.97
2019-01-16T21:02:34.180Z,0.70
2019-01-16T21:05:20.718Z,1.20
2019-01-16T21:07:50.601Z,0.80
2019-01-16T21:10:26.509Z,1.00
2019-01-16T21:12:59.086Z,0.90
2019-01-16T21:15:51.894Z,0.97
2019-01-16T21:18:22.637Z,0.80
2019-01-16T21:20:58.522Z,1.00
2019-01-16T21:23:44.749Z,1.00
2019-01-16T21:26:29.977Z,1.00
2019-01-16T21:28:59.857Z,0.80
2019-01-16T21:31:35.458Z,1.40
2019-01-16T21:34:20.435Z,1.37
2019-01-16T21:36:50.301Z,1.40
2019-01-16T21:39:20.185Z,1.20
2019-01-16T21:42:05.425Z,1.30
2019-01-16T21:44:41.479Z,1.20
2019-01-16T21:47:27.558Z,0.87
2019-01-16T21:50:09.635Z,1.87
2019-01-16T21:52:42.417Z,1.00
2019-01-16T21:55:21.057Z,1.03
2019-01-16T21:57:50.925Z,1.20
2019-01-16T22:00:23.517Z,1.10
2019-01-16T22:03:10.181Z,1.03
2019-01-16T22:05:40.062Z,0.90
2019-01-16T22:08:18.678Z,1.67
2019-01-16T22:11:04.789Z,1.10
2019-01-16T22:13:37.702Z,1.13
2019-01-16T22:16:07.853Z,0.90
2019-01-16T22:18:40.617Z,1.03
2019-01-16T22:21:13.421Z,1.00
2019-01-16T22:23:43.297Z,0.90
2019-01-16T22:26:13.178Z,1.00
2019-01-16T22:28:52.041Z,1.10
2019-01-16T22:31:21.921Z,1.47
2019-01-16T22:34:00.846Z,0.90
2019-01-16T22:36:30.743Z,0.90
2019-01-16T22:39:13.273Z,1.23
2019-01-16T22:41:48.901Z,0.90
2019-01-16T22:44:24.927Z,1.20
2019-01-16T22:47:11.936Z,1.13
2019-01-16T22:49:44.761Z,1.07
2019-01-16T22:52:14.646Z,1.07
2019-01-16T22:54:44.539Z,1.20
2019-01-16T22:57:29.478Z,1.07
2019-01-16T23:00:05.797Z,1.03
2019-01-16T23:02:35.682Z,0.93
2019-01-16T23:05:06.408Z,0.73
2019-01-16T23:07:36.290Z,0.87
2019-01-16T23:10:26.338Z,0.97
2019-01-16T23:13:05.297Z,0.90
2019-01-16T23:15:35.166Z,1.30
2019-01-16T23:18:05.058Z,0.70
2019-01-16T23:20:47.120Z,0.80
2019-01-16T23:23:29.873Z,1.13
2019-01-16T23:26:14.985Z,0.83
2019-01-16T23:28:50.614Z,1.00
2019-01-16T23:31:20.486Z,1.10
2019-01-16T23:33:54.093Z,0.87
2019-01-16T23:36:38.938Z,1.03
2019-01-16T23:39:25.560Z,0.80
2019-01-16T23:42:01.448Z,0.70
2019-01-16T23:44:46.376Z,0.93
2019-01-16T23:47:25.452Z,1.00
2019-01-16T23:49:58.184Z,1.27
2019-01-16T23:52:31.114Z,0.80
2019-01-16T23:55:06.709Z,0.90
2019-01-16T23:57:48.573Z,1.00
